Time;durP1;ratioP1;P1;durP2;ratioP2;P2;SDS_P1;SDS_P2;PMS_P1;PMS_P2;Temp;Humidity;BMP_temperature;BMP_pressure;BME280_temperature;BME280_humidity;BME280_pressure;Samples;Min_cycle;Max_cycle;Signal;HPM_P1;HPM_P2
2022/03/12 00:02:44;;;;;;;5.78;2.50;;;;;;;;;;10267528;28;20074;-70
2022/03/12 00:07:51;;;;;;;5.07;2.07;;;;;;;;;;10295188;28;20383;-71
2022/03/12 00:12:53;;;;;;;7.90;3.10;;;;;;;;;;10310609;28;20041;-73
2022/03/12 00:17:56;;;;;;;8.87;3.37;;;;;;;;;;10320189;28;20483;-71
2022/03/12 00:23:01;;;;;;;5.37;1.80;;;;;;;;;;10316144;28;20106;-71
2022/03/12 00:28:04;;;;;;;4.03;1.77;;;;;;;;;;10318051;28;20279;-72
2022/03/12 00:33:08;;;;;;;5.90;2.07;;;;;;;;;;10301324;28;20049;-72
2022/03/12 00:38:13;;;;;;;3.47;1.35;;;;;;;;;;10289046;28;20035;-71
2022/03/12 00:43:17;;;;;;;;;;;;;;;;;;10262925;28;20069;-72
2022/03/12 00:48:20;;;;;;;4.22;2.17;;;;;;;;;;10277679;28;19933;-72
2022/03/12 00:53:41;;;;;;;6.77;2.63;;;;;;;;;;10266016;28;20034;-70
2022/03/12 00:58:46;;;;;;;5.37;2.37;;;;;;;;;;10278861;28;20031;-71
2022/03/12 01:03:49;;;;;;;4.63;1.23;;;;;;;;;;10264863;28;20070;-71
2022/03/12 01:08:53;;;;;;;3.30;1.50;;;;;;;;;;10275666;28;20039;-71
2022/03/12 01:13:56;;;;;;;8.30;2.85;;;;;;;;;;10269750;28;20570;-71
2022/03/12 01:18:59;;;;;;;4.50;2.30;;;;;;;;;;10267243;28;20094;-70
2022/03/12 01:24:04;;;;;;;7.10;2.97;;;;;;;;;;10274701;28;20035;-70
2022/03/12 01:29:07;;;;;;;;;;;;;;;;;;10266723;28;20085;-70
2022/03/12 01:34:10;;;;;;;4.37;2.47;;;;;;;;;;10263790;28;19997;-72
2022/03/12 01:39:14;;;;;;;5.77;2.57;;;;;;;;;;10275981;28;20054;-72
2022/03/12 01:44:17;;;;;;;4.40;2.22;;;;;;;;;;10274849;28;20531;-73
2022/03/12 01:49:23;;;;;;;7.83;2.63;;;;;;;;;;10277713;28;20046;-72
2022/03/12 01:54:28;;;;;;;7.87;2.50;;;;;;;;;;10257996;28;20042;-72
2022/03/12 01:59:31;;;;;;;5.20;2.37;;;;;;;;;;10267100;28;20614;-72
2022/03/12 02:04:34;;;;;;;10.03;2.80;;;;;;;;;;10265055;28;20046;-71
2022/03/12 02:09:38;;;;;;;4.57;1.77;;;;;;;;;;10263836;28;20062;-71
2022/03/12 02:14:42;;;;;;;10.90;3.40;;;;;;;;;;10273914;28;20565;-71
2022/03/12 02:19:45;;;;;;;6.73;2.53;;;;;;;;;;10286283;28;20058;-73
2022/03/12 02:24:59;;;;;;;4.63;2.33;;;;;;;;;;10263968;28;20055;-72
2022/03/12 02:30:08;;;;;;;5.03;2.33;;;;;;;;;;10263731;28;20039;-72
2022/03/12 02:35:12;;;;;;;;;;;;;;;;;;10276608;28;20062;-71
2022/03/12 02:40:16;;;;;;;5.10;2.50;;;;;;;;;;10282192;28;19922;-72
2022/03/12 02:45:19;;;;;;;5.18;2.85;;;;;;;;;;10265535;28;20039;-72
2022/03/12 02:50:23;;;;;;;1.70;1.50;;;;;;;;;;10271578;28;20047;-71
2022/03/12 02:55:27;;;;;;;4.60;2.22;;;;;;;;;;10266417;28;20055;-72
2022/03/12 03:00:31;;;;;;;6.78;2.97;;;;;;;;;;10283054;28;20057;-72
2022/03/12 03:05:45;;;;;;;8.75;2.55;;;;;;;;;;10281569;28;20046;-71
2022/03/12 03:10:48;;;;;;;;;;;;;;;;;;10270283;28;20093;-71
2022/03/12 03:15:55;;;;;;;9.47;3.13;;;;;;;;;;10282718;28;20012;-70
2022/03/12 03:20:58;;;;;;;7.60;2.50;;;;;;;;;;10266660;28;20435;-72
2022/03/12 03:26:02;;;;;;;3.93;2.07;;;;;;;;;;10259296;28;20487;-72
2022/03/12 03:31:07;;;;;;;3.65;2.33;;;;;;;;;;10276249;28;20031;-72
2022/03/12 03:36:10;;;;;;;5.67;2.67;;;;;;;;;;10264622;28;20754;-71
2022/03/12 03:41:13;;;;;;;5.80;2.72;;;;;;;;;;10282164;28;20034;-71
2022/03/12 03:46:18;;;;;;;7.93;3.33;;;;;;;;;;10269621;28;20455;-71
2022/03/12 03:51:22;;;;;;;10.73;2.73;;;;;;;;;;10277957;28;20203;-71
2022/03/12 03:56:25;;;;;;;2.17;1.03;;;;;;;;;;10279529;28;20038;-71
2022/03/12 04:01:29;;;;;;;3.93;1.53;;;;;;;;;;10263165;28;20562;-71
2022/03/12 04:06:32;;;;;;;;;;;;;;;;;;10277758;28;20112;-73
2022/03/12 04:11:35;;;;;;;7.57;2.23;;;;;;;;;;10261089;28;20004;-71
2022/03/12 04:16:43;;;;;;;11.63;3.63;;;;;;;;;;10267846;28;20414;-72
2022/03/12 04:21:46;;;;;;;4.00;1.87;;;;;;;;;;10261517;28;20043;-71
2022/03/12 04:26:50;;;;;;;2.73;1.43;;;;;;;;;;10256733;28;20452;-71
2022/03/12 04:31:55;;;;;;;3.53;0.87;;;;;;;;;;10285151;28;20035;-71
2022/03/12 04:36:58;;;;;;;3.57;1.13;;;;;;;;;;10264109;28;20055;-70
2022/03/12 04:42:01;;;;;;;3.90;1.93;;;;;;;;;;10264737;28;20026;-71
2022/03/12 04:47:08;;;;;;;4.10;1.27;;;;;;;;;;10279339;28;20042;-70
2022/03/12 04:52:11;;;;;;;5.63;2.00;;;;;;;;;;10262639;28;20667;-71
2022/03/12 04:57:14;;;;;;;5.78;3.00;;;;;;;;;;10258719;28;20500;-71
2022/03/12 05:02:19;;;;;;;3.90;2.13;;;;;;;;;;10275790;28;20488;-71
2022/03/12 05:07:24;;;;;;;2.63;2.07;;;;;;;;;;10270254;28;20050;-71
2022/03/12 05:12:27;;;;;;;4.57;2.47;;;;;;;;;;10279979;28;20034;-71
2022/03/12 05:17:34;;;;;;;9.10;2.60;;;;;;;;;;10273505;28;20078;-71
2022/03/12 05:22:36;;;;;;;8.37;2.83;;;;;;;;;;10266970;28;20406;-71
2022/03/12 05:27:40;;;;;;;4.87;2.47;;;;;;;;;;10269224;28;20039;-72
2022/03/12 05:32:44;;;;;;;4.00;2.10;;;;;;;;;;10281530;28;20055;-70
2022/03/12 05:37:47;;;;;;;;;;;;;;;;;;10263830;28;20062;-69
2022/03/12 05:42:55;;;;;;;6.43;1.83;;;;;;;;;;10258833;28;19922;-71
2022/03/12 05:48:00;;;;;;;3.50;1.63;;;;;;;;;;10269668;28;20077;-71
2022/03/12 05:53:08;;;;;;;3.33;1.93;;;;;;;;;;10288875;28;20046;-69
2022/03/12 05:58:11;;;;;;;4.60;1.83;;;;;;;;;;10264010;28;20089;-72
2022/03/12 06:03:15;;;;;;;9.03;2.93;;;;;;;;;;10268821;28;20043;-71
2022/03/12 06:08:22;;;;;;;;;;;;;;;;;;10284090;28;20023;-72
2022/03/12 06:13:27;;;;;;;4.73;2.43;;;;;;;;;;10282428;28;19925;-71
2022/03/12 06:18:33;;;;;;;8.13;3.33;;;;;;;;;;10281956;28;20030;-72
2022/03/12 06:23:37;;;;;;;8.03;3.67;;;;;;;;;;10277398;28;20046;-71
2022/03/12 06:28:41;;;;;;;4.43;2.47;;;;;;;;;;10267973;28;20149;-72
2022/03/12 06:33:45;;;;;;;7.97;3.47;;;;;;;;;;10281842;28;20042;-72
2022/03/12 06:38:49;;;;;;;4.27;2.33;;;;;;;;;;10270680;28;20046;-71
2022/03/12 06:43:53;;;;;;;1.77;1.30;;;;;;;;;;10280864;28;20484;-70
2022/03/12 06:48:57;;;;;;;10.83;4.53;;;;;;;;;;10268870;28;20055;-72
2022/03/12 06:54:00;;;;;;;12.35;4.78;;;;;;;;;;10265394;28;20066;-72
2022/03/12 06:59:03;;;;;;;15.13;5.07;;;;;;;;;;10270471;28;20043;-71
2022/03/12 07:04:08;;;;;;;13.45;5.15;;;;;;;;;;10266079;28;20045;-71
2022/03/12 07:09:11;;;;;;;4.97;2.75;;;;;;;;;;10269270;28;20035;-72
2022/03/12 07:14:14;;;;;;;40.88;7.40;;;;;;;;;;10270467;28;20045;-71
2022/03/12 07:19:18;;;;;;;10.85;3.95;;;;;;;;;;10265741;28;20031;-70
2022/03/12 07:24:23;;;;;;;12.63;5.47;;;;;;;;;;10290743;28;20042;-70
2022/03/12 07:29:29;;;;;;;13.57;6.00;;;;;;;;;;10288032;28;20116;-71
2022/03/12 07:34:35;;;;;;;13.15;6.50;;;;;;;;;;10300398;28;20121;-71
2022/03/12 07:39:38;;;;;;;18.42;7.22;;;;;;;;;;10303303;28;20039;-70
2022/03/12 07:44:41;;;;;;;12.80;7.13;;;;;;;;;;10284390;28;20038;-72
2022/03/12 07:49:45;;;;;;;16.87;7.33;;;;;;;;;;10290057;28;20525;-72
2022/03/12 07:54:50;;;;;;;16.60;7.30;;;;;;;;;;10262259;28;20326;-71
2022/03/12 07:59:54;;;;;;;18.27;8.45;;;;;;;;;;10280040;28;20069;-69
2022/03/12 08:04:59;;;;;;;14.80;8.35;;;;;;;;;;10264186;28;20581;-71
2022/03/12 08:10:02;;;;;;;15.80;7.75;;;;;;;;;;10264555;28;20031;-69
2022/03/12 08:15:05;;;;;;;17.90;8.73;;;;;;;;;;10277480;28;20034;-70
2022/03/12 08:20:10;;;;;;;17.35;9.32;;;;;;;;;;10260451;28;20090;-72
2022/03/12 08:25:13;;;;;;;;;;;;;;;;;;10287691;28;20042;-71
2022/03/12 08:30:19;;;;;;;16.15;9.68;;;;;;;;;;10267285;28;19965;-72
2022/03/12 08:47:24;;;;;;;15.40;9.88;;;;;;;;;;10248622;28;20022;-70
2022/03/12 08:52:27;;;;;;;16.85;10.60;;;;;;;;;;10260615;28;20380;-70
2022/03/12 08:57:30;;;;;;;15.85;10.25;;;;;;;;;;10264056;28;20550;-72
2022/03/12 09:02:34;;;;;;;15.85;10.20;;;;;;;;;;10272314;28;20466;-71
2022/03/12 09:07:37;;;;;;;16.65;10.63;;;;;;;;;;10257399;28;20418;-73
2022/03/12 09:12:40;;;;;;;17.90;11.63;;;;;;;;;;10261208;28;20089;-72
2022/03/12 09:17:45;;;;;;;16.05;10.05;;;;;;;;;;10279121;28;20042;-73
2022/03/12 09:22:48;;;;;;;14.50;9.88;;;;;;;;;;10262219;28;20566;-73
2022/03/12 09:27:53;;;;;;;15.70;10.38;;;;;;;;;;10252353;28;20063;-72
2022/03/12 09:32:58;;;;;;;17.85;10.15;;;;;;;;;;10273219;28;20055;-72
2022/03/12 09:38:02;;;;;;;17.55;9.93;;;;;;;;;;10263245;28;20035;-72
2022/03/12 09:43:05;;;;;;;14.35;9.52;;;;;;;;;;10292147;28;20038;-69
2022/03/12 09:48:13;;;;;;;15.77;10.43;;;;;;;;;;10279841;28;20039;-71
2022/03/12 09:53:16;;;;;;;17.60;10.27;;;;;;;;;;10261692;28;20513;-71
2022/03/12 09:58:20;;;;;;;13.98;10.40;;;;;;;;;;10267576;28;20491;-71
2022/03/12 10:03:24;;;;;;;15.57;10.23;;;;;;;;;;10254728;28;20233;-72
2022/03/12 10:08:28;;;;;;;17.30;10.38;;;;;;;;;;10272572;28;20326;-70
2022/03/12 10:13:31;;;;;;;16.70;10.23;;;;;;;;;;10270433;28;20400;-71
2022/03/12 10:18:36;;;;;;;17.90;9.85;;;;;;;;;;10274747;28;20059;-72
2022/03/12 10:23:42;;;;;;;14.95;10.10;;;;;;;;;;10278215;28;20062;-72
2022/03/12 10:28:45;;;;;;;15.70;9.82;;;;;;;;;;10262199;28;20054;-71
2022/03/12 10:33:50;;;;;;;16.25;9.85;;;;;;;;;;10253053;28;20133;-72
2022/03/12 10:38:53;;;;;;;20.88;10.63;;;;;;;;;;10283442;28;20030;-71
2022/03/12 10:43:57;;;;;;;14.05;10.32;;;;;;;;;;10278919;28;20089;-71
2022/03/12 10:49:02;;;;;;;16.58;10.75;;;;;;;;;;10265346;28;20046;-70
2022/03/12 10:54:07;;;;;;;17.92;10.80;;;;;;;;;;10280575;28;20051;-69
2022/03/12 10:59:12;;;;;;;16.88;10.68;;;;;;;;;;10261994;28;20399;-72
2022/03/12 11:04:17;;;;;;;21.05;11.20;;;;;;;;;;10266782;28;20038;-74
2022/03/12 11:09:32;;;;;;;15.75;11.07;;;;;;;;;;10264260;28;20043;-73
2022/03/12 11:14:35;;;;;;;15.85;11.07;;;;;;;;;;10267146;28;20046;-72
2022/03/12 11:19:43;;;;;;;15.32;10.82;;;;;;;;;;10270174;28;20039;-71
2022/03/12 11:24:47;;;;;;;16.20;11.43;;;;;;;;;;10271162;28;20046;-72
2022/03/12 11:29:56;;;;;;;17.85;11.52;;;;;;;;;;10257006;28;20051;-72
2022/03/12 11:35:06;;;;;;;18.38;11.88;;;;;;;;;;10265807;28;20458;-72
2022/03/12 11:40:11;;;;;;;15.07;11.63;;;;;;;;;;10275276;28;20101;-72
2022/03/12 11:45:15;;;;;;;19.02;11.88;;;;;;;;;;10280109;28;20039;-70
2022/03/12 11:50:22;;;;;;;18.20;12.30;;;;;;;;;;10268205;28;20043;-72
2022/03/12 11:55:27;;;;;;;18.40;12.57;;;;;;;;;;10277009;28;20093;-72
2022/03/12 12:00:30;;;;;;;20.15;12.75;;;;;;;;;;10273115;28;20150;-72
2022/03/12 12:05:35;;;;;;;21.30;13.13;;;;;;;;;;10275623;28;20577;-73
2022/03/12 12:10:42;;;;;;;19.95;12.02;;;;;;;;;;10277966;28;20058;-70
2022/03/12 12:15:45;;;;;;;21.70;12.45;;;;;;;;;;10278956;28;20034;-73
2022/03/12 12:20:50;;;;;;;21.48;13.15;;;;;;;;;;10257294;28;20463;-72
2022/03/12 12:25:59;;;;;;;22.92;13.32;;;;;;;;;;10277029;28;20043;-72
2022/03/12 12:31:02;;;;;;;23.02;12.75;;;;;;;;;;10278877;28;20035;-73
2022/03/12 12:36:14;;;;;;;23.00;13.13;;;;;;;;;;10266938;28;20204;-71
2022/03/12 12:41:17;;;;;;;20.05;12.60;;;;;;;;;;10260815;28;20047;-72
2022/03/12 12:46:20;;;;;;;25.00;14.57;;;;;;;;;;10257901;28;20414;-72
2022/03/12 12:51:26;;;;;;;22.40;12.55;;;;;;;;;;10269095;28;20035;-73
2022/03/12 12:56:30;;;;;;;20.00;11.63;;;;;;;;;;10262778;28;20566;-72
2022/03/12 13:01:45;;;;;;;22.95;12.85;;;;;;;;;;10276459;28;20035;-72
2022/03/12 13:06:52;;;;;;;18.75;10.90;;;;;;;;;;10257674;28;20085;-72
2022/03/12 13:11:59;;;;;;;21.65;12.32;;;;;;;;;;10277074;28;20458;-72
2022/03/12 13:17:05;;;;;;;23.38;13.18;;;;;;;;;;10255860;28;20046;-72
2022/03/12 13:22:10;;;;;;;22.65;12.77;;;;;;;;;;10258867;28;20145;-71
2022/03/12 13:27:18;;;;;;;22.48;11.55;;;;;;;;;;10272738;28;20035;-72
2022/03/12 13:32:22;;;;;;;22.33;12.50;;;;;;;;;;10259985;28;20388;-73
2022/03/12 13:37:26;;;;;;;25.50;13.15;;;;;;;;;;10271684;28;20051;-73
2022/03/12 13:42:29;;;;;;;23.67;11.65;;;;;;;;;;10274608;28;20030;-69
2022/03/12 13:47:32;;;;;;;19.45;10.18;;;;;;;;;;10278181;28;20035;-69
2022/03/12 13:52:36;;;;;;;22.17;11.43;;;;;;;;;;10274586;28;20125;-71
2022/03/12 13:57:41;;;;;;;23.52;10.85;;;;;;;;;;10262387;28;20051;-71
2022/03/12 14:02:45;;;;;;;21.20;10.98;;;;;;;;;;10254102;28;20038;-71
2022/03/12 14:07:51;;;;;;;19.75;9.82;;;;;;;;;;10258399;28;20047;-71
2022/03/12 14:12:58;;;;;;;22.35;10.45;;;;;;;;;;10278308;28;20044;-73
2022/03/12 14:18:01;;;;;;;21.33;9.43;;;;;;;;;;10282875;28;20066;-72
2022/03/12 14:23:09;;;;;;;21.67;9.40;;;;;;;;;;10257390;28;20039;-70
2022/03/12 14:28:33;;;;;;;19.33;9.18;;;;;;;;;;10281671;28;20117;-71
2022/03/12 14:33:37;;;;;;;19.95;9.43;;;;;;;;;;10281230;28;20455;-70
2022/03/12 14:38:41;;;;;;;15.40;8.30;;;;;;;;;;10266985;28;20035;-71
2022/03/12 14:43:44;;;;;;;18.77;8.52;;;;;;;;;;10275815;28;20456;-71
2022/03/12 14:48:48;;;;;;;20.25;8.43;;;;;;;;;;10267320;28;20570;-71
2022/03/12 14:53:52;;;;;;;15.75;7.10;;;;;;;;;;10276948;28;20046;-71
2022/03/12 14:58:56;;;;;;;17.70;8.57;;;;;;;;;;10268472;28;20070;-71
2022/03/12 15:03:59;;;;;;;17.08;7.63;;;;;;;;;;10252261;28;20042;-72
2022/03/12 15:09:08;;;;;;;14.93;7.43;;;;;;;;;;10278230;28;20062;-70
2022/03/12 15:14:11;;;;;;;16.17;7.45;;;;;;;;;;10276504;28;20090;-71
2022/03/12 15:19:15;;;;;;;15.98;6.65;;;;;;;;;;10278049;28;20352;-71
2022/03/12 15:24:19;;;;;;;19.15;7.13;;;;;;;;;;10264516;28;20039;-71
2022/03/12 15:29:27;;;;;;;14.00;7.50;;;;;;;;;;10275964;28;20105;-70
2022/03/12 15:34:34;;;;;;;16.17;7.20;;;;;;;;;;10261034;28;20053;-71
2022/03/12 15:39:38;;;;;;;12.57;5.47;;;;;;;;;;10267041;28;20101;-71
2022/03/12 15:44:42;;;;;;;17.25;6.60;;;;;;;;;;10269055;28;20377;-71
2022/03/12 15:49:44;;;;;;;;;;;;;;;;;;10277465;28;20053;-70
2022/03/12 15:54:50;;;;;;;14.48;5.90;;;;;;;;;;10275738;28;20012;-71
2022/03/12 15:59:54;;;;;;;13.82;6.22;;;;;;;;;;10276709;28;20039;-72
2022/03/12 16:04:56;;;;;;;16.73;6.75;;;;;;;;;;10259583;28;20114;-72
2022/03/12 16:10:01;;;;;;;16.73;6.87;;;;;;;;;;10258482;28;20511;-70
2022/03/12 16:15:09;;;;;;;20.38;6.80;;;;;;;;;;10275847;28;20049;-71
2022/03/12 16:20:13;;;;;;;14.10;6.13;;;;;;;;;;10274384;28;20043;-71
2022/03/12 16:25:18;;;;;;;14.30;5.53;;;;;;;;;;10259716;28;20045;-72
2022/03/12 16:30:25;;;;;;;17.27;5.93;;;;;;;;;;10257830;28;20363;-71
2022/03/12 16:35:29;;;;;;;16.35;6.13;;;;;;;;;;10260819;28;20094;-71
2022/03/12 16:40:37;;;;;;;17.40;5.95;;;;;;;;;;10281608;28;20526;-71
2022/03/12 16:45:44;;;;;;;13.18;5.47;;;;;;;;;;10279683;28;20065;-70
2022/03/12 16:50:47;;;;;;;12.77;5.30;;;;;;;;;;10264372;28;20101;-71
2022/03/12 16:55:52;;;;;;;15.23;4.97;;;;;;;;;;10277223;28;20093;-71
2022/03/12 17:00:55;;;;;;;10.32;4.38;;;;;;;;;;10276145;28;20489;-71
2022/03/12 17:05:58;;;;;;;8.68;3.60;;;;;;;;;;10263724;28;20052;-70
2022/03/12 17:11:04;;;;;;;8.98;3.22;;;;;;;;;;10273370;28;20039;-70
2022/03/12 17:16:07;;;;;;;9.27;3.00;;;;;;;;;;10262827;28;20039;-69
2022/03/12 17:21:13;;;;;;;7.32;3.22;;;;;;;;;;10259968;28;20042;-72
2022/03/12 17:26:22;;;;;;;7.07;3.20;;;;;;;;;;10259368;28;20146;-71
2022/03/12 17:31:27;;;;;;;6.18;2.70;;;;;;;;;;10261948;28;20066;-69
2022/03/12 17:36:31;;;;;;;7.18;3.28;;;;;;;;;;10256760;28;20043;-70
2022/03/12 17:41:36;;;;;;;7.97;3.40;;;;;;;;;;10274868;28;20126;-71
2022/03/12 17:46:39;;;;;;;7.78;3.53;;;;;;;;;;10254736;28;20408;-70
2022/03/12 17:51:43;;;;;;;6.83;3.40;;;;;;;;;;10280803;28;20129;-70
2022/03/12 17:56:50;;;;;;;9.30;3.45;;;;;;;;;;10265646;28;20420;-70
2022/03/12 18:01:52;;;;;;;7.65;3.75;;;;;;;;;;10263642;28;20413;-70
2022/03/12 18:06:55;;;;;;;7.82;3.42;;;;;;;;;;10271978;28;20067;-71
2022/03/12 18:12:00;;;;;;;9.70;3.20;;;;;;;;;;10264077;28;20035;-70
2022/03/12 18:17:04;;;;;;;11.73;3.38;;;;;;;;;;10274612;28;20055;-70
2022/03/12 18:22:07;;;;;;;8.70;3.72;;;;;;;;;;10274051;28;20074;-70
2022/03/12 18:27:13;;;;;;;9.15;3.80;;;;;;;;;;10257637;28;20035;-70
2022/03/12 18:32:20;;;;;;;6.18;3.30;;;;;;;;;;10260762;28;20067;-71
2022/03/12 18:37:23;;;;;;;6.70;2.90;;;;;;;;;;10274420;28;20073;-71
2022/03/12 18:42:28;;;;;;;11.35;3.67;;;;;;;;;;10257906;28;20038;-71
2022/03/12 18:47:30;;;;;;;;;;;;;;;;;;10261513;28;20055;-70
2022/03/12 18:52:33;;;;;;;7.53;3.20;;;;;;;;;;10258094;28;19922;-71
2022/03/12 18:57:37;;;;;;;8.68;3.83;;;;;;;;;;10267911;28;20053;-71
2022/03/12 19:02:40;;;;;;;16.88;4.10;;;;;;;;;;10263754;28;20039;-71
2022/03/12 19:07:55;;;;;;;8.77;3.83;;;;;;;;;;10286481;28;20492;-71
2022/03/12 19:13:11;;;;;;;9.02;3.97;;;;;;;;;;10264233;28;20113;-69
2022/03/12 19:18:16;;;;;;;9.73;3.97;;;;;;;;;;10271303;28;20046;-72
2022/03/12 19:23:23;;;;;;;11.65;3.38;;;;;;;;;;10273691;28;20047;-70
2022/03/12 19:28:28;;;;;;;6.30;3.45;;;;;;;;;;10271301;28;20059;-70
2022/03/12 19:33:32;;;;;;;;;;;;;;;;;;10278800;28;20117;-72
2022/03/12 19:38:38;;;;;;;10.27;3.95;;;;;;;;;;10279190;28;20013;-70
2022/03/12 19:43:43;;;;;;;10.88;3.75;;;;;;;;;;10259205;28;20066;-69
2022/03/12 19:48:48;;;;;;;13.05;3.88;;;;;;;;;;10279137;28;20046;-70
2022/03/12 19:53:51;;;;;;;;;;;;;;;;;;10276836;28;20049;-71
2022/03/12 19:58:56;;;;;;;9.70;3.93;;;;;;;;;;10280626;28;20345;-71
2022/03/12 20:04:00;;;;;;;10.67;4.23;;;;;;;;;;10266503;28;20068;-72
2022/03/12 20:09:02;;;;;;;10.17;4.47;;;;;;;;;;10275862;28;20038;-72
2022/03/12 20:14:08;;;;;;;12.93;4.57;;;;;;;;;;10277536;28;20039;-69
2022/03/12 20:19:13;;;;;;;10.33;4.13;;;;;;;;;;10276927;28;20455;-71
2022/03/12 20:24:16;;;;;;;;;;;;;;;;;;10255697;28;20529;-70
2022/03/12 20:29:24;;;;;;;14.33;4.70;;;;;;;;;;10277361;28;20040;-70
2022/03/12 20:34:27;;;;;;;;;;;;;;;;;;10276225;28;20053;-73
2022/03/12 20:39:31;;;;;;;;;;;;;;;;;;10267704;28;19926;-72
2022/03/12 20:44:33;;;;;;;;;;;;;;;;;;10287503;28;20397;-73
2022/03/12 20:49:38;;;;;;;8.03;3.83;;;;;;;;;;10287367;28;19988;-71
2022/03/12 20:54:44;;;;;;;10.73;4.10;;;;;;;;;;10286592;28;20101;-72
2022/03/12 20:59:47;;;;;;;12.03;4.33;;;;;;;;;;10274849;28;20089;-71
2022/03/12 21:04:51;;;;;;;;;;;;;;;;;;10288767;28;20149;-73
2022/03/12 21:09:55;;;;;;;10.83;4.07;;;;;;;;;;10271053;28;19926;-72
2022/03/12 21:14:59;;;;;;;8.70;3.90;;;;;;;;;;10264343;28;20487;-72
2022/03/12 21:20:02;;;;;;;10.57;4.78;;;;;;;;;;10295753;28;20519;-71
2022/03/12 21:25:08;;;;;;;14.47;4.80;;;;;;;;;;10297391;28;20096;-70
2022/03/12 21:30:16;;;;;;;12.37;4.23;;;;;;;;;;10275681;28;20060;-72
2022/03/12 21:35:19;;;;;;;11.47;4.90;;;;;;;;;;10278869;28;20055;-71
2022/03/12 21:40:25;;;;;;;9.90;4.63;;;;;;;;;;10297288;28;20046;-72
2022/03/12 21:45:28;;;;;;;10.97;4.50;;;;;;;;;;10301014;28;20058;-72
2022/03/12 21:50:33;;;;;;;10.40;4.50;;;;;;;;;;10269461;28;20049;-70
2022/03/12 21:55:37;;;;;;;9.40;3.53;;;;;;;;;;10280096;28;20027;-71
2022/03/12 22:00:40;;;;;;;11.18;4.78;;;;;;;;;;10271526;28;20055;-72
2022/03/12 22:05:44;;;;;;;8.73;4.47;;;;;;;;;;10277815;28;20061;-71
2022/03/12 22:10:49;;;;;;;9.83;4.30;;;;;;;;;;10282662;28;20510;-72
2022/03/12 22:15:52;;;;;;;;;;;;;;;;;;10279485;28;20506;-72
2022/03/12 22:20:55;;;;;;;7.13;4.03;;;;;;;;;;10282219;28;20032;-72
2022/03/12 22:26:01;;;;;;;11.30;4.27;;;;;;;;;;10282666;28;20101;-72
2022/03/12 22:31:05;;;;;;;9.20;4.13;;;;;;;;;;10284353;28;20034;-72
2022/03/12 22:36:07;;;;;;;11.23;4.13;;;;;;;;;;10266150;28;20069;-73
2022/03/12 22:41:12;;;;;;;7.53;3.07;;;;;;;;;;10287318;28;20527;-71
2022/03/12 22:46:16;;;;;;;8.77;3.70;;;;;;;;;;10271938;28;20035;-73
2022/03/12 22:51:20;;;;;;;7.93;3.60;;;;;;;;;;10281582;28;20042;-71
2022/03/12 22:56:26;;;;;;;8.93;3.87;;;;;;;;;;10284795;28;20039;-71
2022/03/12 23:01:47;;;;;;;9.67;4.23;;;;;;;;;;10276606;28;20042;-71
2022/03/12 23:12:15;;;;;;;10.10;4.77;;;;;;;;;;10272783;28;20101;-71
2022/03/12 23:17:20;;;;;;;10.83;4.40;;;;;;;;;;10272191;28;20059;-70
2022/03/12 23:22:24;;;;;;;10.07;4.00;;;;;;;;;;10286202;28;20035;-71
2022/03/12 23:27:32;;;;;;;10.13;4.35;;;;;;;;;;10265274;28;20128;-72
2022/03/12 23:32:36;;;;;;;8.20;4.10;;;;;;;;;;10278652;28;20460;-70
2022/03/12 23:37:40;;;;;;;14.90;4.60;;;;;;;;;;10263007;28;20039;-70
2022/03/12 23:42:46;;;;;;;10.45;3.83;;;;;;;;;;10282991;28;20097;-72
2022/03/12 23:47:52;;;;;;;10.23;3.77;;;;;;;;;;10267073;28;20289;-72
2022/03/12 23:52:55;;;;;;;9.87;4.10;;;;;;;;;;10275038;28;20499;-73
2022/03/12 23:58:03;;;;;;;9.83;2.43;;;;;;;;;;10285980;28;20126;-72
